Pagina principale
METAR-TAF:

METAR-TAF

Aeroporti :

Dübendorf, Svizzera

latitudine: 47-23-55N, longitudine: 8-38-53E, altezza: 448 m

Osservazione

Il bollettino è stato emesso 20 minuti fa, alle 05:20 UTC
Vento 6 kt da sud-ovest, variando fra sud e nord/nord-ovest
Temperature 4°C
Umidità 81%
Pressione 1007 hPa
Visibilità 10 km o più
Poco nuvoloso ad un'altezza di 1500 ft
Nubi sparse ad un'altezza di 1800 ft
Nuvoloso ad un'altezza di 2200 ft
rovesci di pioggia

METAR: LSMD 180520Z AUTO 23006KT 170V340 9999NDV -SHRA FEW015 SCT018 BKN022 04/01 Q1007 RMK

Ora: 06:40 (05:40 UTC)


TAF: mancante

Osservazioni e previsioni meteorologiche di più di 4000 aeroporti (messaggi METAR e TAF).

Le stazioni disponibili sono rappresentate dai dischi gialli e rossi sulla carta.

Puntare il mouse per vedere il nome della stazione.

Clicca sopra per visualizzare le osservazioni e previsioni meteorologiche.

Per cambiare la mappa : fare clic sui pulsanti verdi con una croce nera per ingrandire, il pulsante verde con un trattino per diminuire, o sulla freccia verde per le mappe adiacenti.


METAR-TAF: